Sacramento, CA (94256)

11:17 PM PDT on October 25, 2014 (GMT -0700)
MIDTOWN | Change Station
CLOSE
Current Station
Personal Weather Station
Location: SACRAMENTO, CA
Elevation: 24 ft
Nearby Weather Stations

Elev 24 ft 38.57 °N, 121.48 °W | Updated 4 seconds ago

Partly Cloudy
Partly Cloudy
55.6 °F
Feels Like 55.6 °F
N
2.7
Wind Variable Wind from SW
Gusts 4.9 mph

Today
High -- | Low -- °F
--% Chance of Precip.
Yesterday
High -- | Low -- °F
Precip. -- in
7:25 AM 6:14 PM
Waxing Crescent, 6% visible
Pressure 30.12 in
Visibility 10.0 miles
Clouds Few 11000 ft
Dew Point 50 °F
Humidity 83%
Rainfall 0.12 in
Snow Depth Not available.
UV 0.0 out of 12
Pollen 2.40 out of 12
Ozone Good
PM2.5 Good
Flu Activity Sporadic
METAR KSAC 260553Z 19006KT 10SM FEW110 16/12 A3012 RMK AO2 SLP198 T01610122 10217 20156 51016

More Conditions Fewer Conditions

Pressure 30.12 in
Visibility 10.0 miles
Clouds Few 11000 ft
Dew Point 50 °F
Humidity 83%
Rainfall 0.12 in
Snow Depth Not available.
UV 0.0 out of 12
Pollen 2.40 out of 12
Ozone Good
PM2.5 Good
Flu Activity Sporadic
METAR KSAC 260553Z 19006KT 10SM FEW110 16/12 A3012 RMK AO2 SLP198 T01610122 10217 20156 51016

More Conditions Fewer Conditions

10-Day Weather Forecast

Almanac

Astronomy

Oct. 25, 2014 Rise Set
Actual Time 7:25 AM PDT 6:14 PM PDT
Civil Twilight 6:58 AM PDT 6:41 PM PDT
Nautical Twilight 6:27 AM PDT 7:12 PM PDT
Astronomical Twilight 5:56 AM PDT 7:43 PM PDT
Moon 9:08 AM PDT (10/25) 7:42 PM PDT (10/25)
Length of Visible Light 11h 43m
Length of Day
10h 48m
Tomorrow will be 2m 17s shorter.
Waxing Crescent, 6% of the Moon is Illuminated
Oct 26
Waxing Crescent
Oct 30
First Quarter
Nov 6
Full
Nov 14
Last Quarter
Nov 22
New

Community

WunderPhotos

Upload Photos

1,765,113 photos uploaded!

Nearby

Air Quality

  Air Quality AQ Index Pollutant
Yesterday Good
OZONE
Yesterday Good
PM10
Current Good
OZONE
Current Good
PM2.5
Saturday Good
OZONE
Sunday Good
OZONE
Monday Good
OZONE
Tuesday Good
OZONE
Wednesday Good
OZONE
Thursday Good
OZONE

Snow Depth

Station Depth Elevation
Ward Creek #3 1 in 6750 ft
Squaw Valley 1 in 8200 ft
Rubicon #2 2 in 7500 ft
Echo Peak 3 in 7800 ft
CSS Lab 3 in 6900 ft

Earthquake Activity

City Distance Mag. Time & Date
Antioch, California 39 miles 2.7 6:42 AM PDT
2014-10-25
Deer Park, California 52 miles 2.8 6:40 AM PDT
2014-10-25
Gerlach-Empire, Nevada 151 miles 2.5 7:16 AM PDT
2014-10-23
Minimum magnitude displayed is 2.5.

Coastal Water Temperatures

Place Temperature
No Stations Reporting

Nearby Weather Stations